Time;durP1;ratioP1;P1;durP2;ratioP2;P2;SDS_P1;SDS_P2;PMS_P1;PMS_P2;Temp;Humidity;BMP_temperature;BMP_pressure;BME280_temperature;BME280_humidity;BME280_pressure;Samples;Min_cycle;Max_cycle;Signal;HPM_P1;HPM_P2
2023/09/19 00:01:33;;;;;;;7.93;1.77;;;;;;;15.86;100.00;100428.09;5033838;28;20132;-60
2023/09/19 00:03:59;;;;;;;2.95;1.67;;;;;;;15.83;100.00;100430.81;5028443;28;20052;-60
2023/09/19 00:06:25;;;;;;;3.13;1.70;;;;;;;15.80;100.00;100436.13;5028761;28;20026;-60
2023/09/19 00:08:52;;;;;;;4.25;1.70;;;;;;;15.78;100.00;100430.13;5026263;28;20061;-60
2023/09/19 00:11:17;;;;;;;4.07;1.73;;;;;;;15.75;100.00;100434.56;5029023;28;20079;-60
2023/09/19 00:13:43;;;;;;;6.35;1.75;;;;;;;15.72;100.00;100423.38;5029130;28;20064;-60
2023/09/19 00:16:14;;;;;;;8.25;2.35;;;;;;;15.70;100.00;100435.63;5027655;28;20042;-60
2023/09/19 00:18:39;;;;;;;3.03;1.73;;;;;;;15.70;100.00;100430.41;5030273;28;20036;-60
2023/09/19 00:21:05;;;;;;;3.60;1.48;;;;;;;15.69;100.00;100439.97;5032266;28;20797;-60
2023/09/19 00:23:31;;;;;;;4.82;1.92;;;;;;;15.70;100.00;100435.63;5031216;28;20029;-60
2023/09/19 00:26:00;;;;;;;6.03;1.95;;;;;;;15.71;100.00;100438.16;5031216;28;20088;-59
2023/09/19 00:28:27;;;;;;;6.53;1.95;;;;;;;15.72;100.00;100439.00;5026994;28;20030;-60
2023/09/19 00:30:54;;;;;;;2.90;1.80;;;;;;;15.71;100.00;100438.16;5029426;28;20436;-60
2023/09/19 00:33:20;;;;;;;4.32;1.92;;;;;;;15.71;100.00;100432.94;5029365;28;20045;-60
2023/09/19 00:35:53;;;;;;;5.63;1.85;;;;;;;15.69;100.00;100426.94;5031319;28;20399;-60
2023/09/19 00:38:22;;;;;;;5.88;1.80;;;;;;;15.69;100.00;100421.75;5028557;28;20094;-60
2023/09/19 00:40:48;;;;;;;6.50;1.60;;;;;;;15.67;100.00;100422.69;5032330;28;20033;-60
2023/09/19 00:43:14;;;;;;;3.63;1.40;;;;;;;15.63;100.00;100428.91;5028197;28;20029;-60
2023/09/19 00:45:45;;;;;;;3.92;1.52;;;;;;;15.60;100.00;100426.38;5028553;28;20035;-60
2023/09/19 00:48:11;;;;;;;5.13;1.70;;;;;;;15.57;100.00;100432.53;5028710;28;20025;-60
2023/09/19 00:50:41;;;;;;;6.25;1.80;;;;;;;15.55;100.00;100434.31;5033301;28;20466;-60
2023/09/19 00:53:07;;;;;;;7.22;1.38;;;;;;;15.55;100.00;100439.53;5028268;28;20099;-59
2023/09/19 00:55:34;;;;;;;4.40;1.73;;;;;;;15.55;100.00;100441.31;5034660;28;20036;-60
2023/09/19 00:58:00;;;;;;;6.18;1.58;;;;;;;15.55;100.00;100446.53;5033021;28;20053;-60
2023/09/19 01:00:26;;;;;;;6.68;1.92;;;;;;;15.57;100.00;100444.72;5035596;28;20052;-60
2023/09/19 01:02:51;;;;;;;2.28;1.40;;;;;;;15.64;100.00;100439.25;5029539;28;20065;-60
2023/09/19 01:05:18;;;;;;;5.72;1.60;;;;;;;15.72;99.69;100446.84;5030330;28;20033;-60
2023/09/19 01:07:48;;;;;;;4.43;1.50;;;;;;;15.81;99.07;100443.91;5031197;28;20754;-60
2023/09/19 01:10:20;;;;;;;5.20;1.88;;;;;;;15.89;98.70;100454.06;5032812;28;20749;-60
2023/09/19 01:12:48;;;;;;;4.40;1.50;;;;;;;15.97;98.03;100458.09;5015986;28;20456;-60
2023/09/19 01:15:35;;;;;;;4.82;1.23;;;;;;;16.04;98.26;100462.19;5042381;28;20034;-60
2023/09/19 01:18:13;;;;;;;6.82;1.70;;;;;;;16.11;97.14;100457.63;5036497;28;20045;-60
2023/09/19 01:21:06;;;;;;;10.57;1.80;;;;;;;16.17;96.50;100460.88;5031854;28;20666;-60
2023/09/19 01:24:10;;;;;;;5.32;1.60;;;;;;;16.21;96.26;100462.44;5029969;28;20033;-60
2023/09/19 01:26:55;;;;;;;5.78;1.52;;;;;;;16.24;96.31;100461.47;5032475;28;20037;-60
2023/09/19 01:29:34;;;;;;;4.72;1.95;;;;;;;16.28;96.03;100465.69;5030842;28;20045;-60
2023/09/19 01:32:04;;;;;;;3.30;1.17;;;;;;;16.31;95.31;100470.78;5039225;28;20433;-60
2023/09/19 01:34:47;;;;;;;6.20;1.50;;;;;;;16.35;95.32;100476.75;5032114;28;20034;-60
2023/09/19 01:37:14;;;;;;;6.43;1.95;;;;;;;16.37;94.41;100483.59;5034939;28;20534;-60
2023/09/19 01:39:40;;;;;;;4.07;1.60;;;;;;;16.40;94.09;100478.28;5031929;28;20564;-60
2023/09/19 01:42:22;;;;;;;3.78;1.83;;;;;;;16.43;93.65;100491.22;5034852;28;20408;-60
2023/09/19 01:44:47;;;;;;;6.03;1.77;;;;;;;16.49;92.42;100485.75;5032072;28;20065;-60
2023/09/19 01:47:39;;;;;;;7.47;1.30;;;;;;;16.54;90.77;100489.03;5034142;28;20075;-62
2023/09/19 01:50:11;;;;;;;12.60;2.28;;;;;;;16.56;90.38;100489.81;5025436;28;20806;-60
2023/09/19 01:52:43;;;;;;;6.57;1.65;;;;;;;16.61;89.74;100489.69;5030846;28;20064;-60
2023/09/19 01:55:10;;;;;;;7.55;1.48;;;;;;;16.62;86.19;100475.72;5030934;28;20492;-60
2023/09/19 01:58:04;;;;;;;7.38;1.42;;;;;;;16.69;85.34;100480.66;5036174;28;20021;-60
2023/09/19 02:00:32;;;;;;;9.98;2.15;;;;;;;16.73;85.46;100481.38;5027268;28;20081;-60
2023/09/19 02:02:59;;;;;;;7.45;1.60;;;;;;;16.75;83.22;100480.41;5028122;28;20547;-64
2023/09/19 02:05:25;;;;;;;4.07;1.83;;;;;;;16.74;82.15;100476.09;5034810;28;20044;-60
2023/09/19 02:07:52;;;;;;;14.13;2.25;;;;;;;16.73;81.54;100468.34;5026554;28;20040;-61
2023/09/19 02:10:18;;;;;;;10.13;2.17;;;;;;;16.71;80.70;100478.81;5032772;28;20033;-60
2023/09/19 02:12:43;;;;;;;9.32;2.40;;;;;;;16.68;79.89;100485.94;5031988;28;20088;-60
2023/09/19 02:15:09;;;;;;;9.27;2.33;;;;;;;16.63;80.81;100491.31;5035855;28;20476;-62
2023/09/19 02:17:34;;;;;;;9.07;2.67;;;;;;;16.56;81.09;100489.00;5030177;28;20042;-63
2023/09/19 02:20:00;;;;;;;11.45;2.42;;;;;;;16.53;80.64;100487.38;5031002;28;20091;-61
2023/09/19 02:22:26;;;;;;;9.57;2.53;;;;;;;16.48;81.28;100504.94;5031375;28;20458;-61
2023/09/19 02:24:53;;;;;;;9.02;1.98;;;;;;;16.48;80.15;100493.63;5034862;28;20061;-61
2023/09/19 02:27:19;;;;;;;11.82;2.38;;;;;;;16.47;79.46;100486.72;5030308;28;20029;-61
2023/09/19 02:29:44;;;;;;;8.15;2.67;;;;;;;16.46;80.63;100508.50;5031353;28;20037;-61
2023/09/19 02:32:10;;;;;;;12.73;2.20;;;;;;;16.40;80.51;100501.75;5028784;28;20106;-61
2023/09/19 02:34:36;;;;;;;11.00;1.85;;;;;;;16.37;81.00;100504.47;5031140;28;20597;-61
2023/09/19 02:37:05;;;;;;;10.38;2.38;;;;;;;16.33;81.12;100510.69;5030007;28;20048;-61
2023/09/19 02:39:32;;;;;;;7.93;2.35;;;;;;;16.31;81.47;100515.13;5031832;28;20439;-61
2023/09/19 02:41:57;;;;;;;7.38;2.25;;;;;;;16.27;82.59;100518.75;5030921;28;20132;-60
2023/09/19 02:44:23;;;;;;;8.00;2.30;;;;;;;16.21;82.85;100525.03;5028887;28;20029;-60
2023/09/19 02:46:49;;;;;;;9.95;2.20;;;;;;;16.19;82.99;100523.38;5029126;28;20068;-60
2023/09/19 02:49:14;;;;;;;16.65;2.80;;;;;;;16.15;82.92;100513.94;5030805;28;20503;-61
2023/09/19 02:51:40;;;;;;;12.90;3.08;;;;;;;16.09;83.72;100533.28;5031133;28;20033;-60
2023/09/19 02:54:05;;;;;;;9.20;2.70;;;;;;;16.08;83.38;100528.13;5030234;28;20031;-61
2023/09/19 02:56:32;;;;;;;7.25;2.53;;;;;;;16.07;83.86;100537.69;5029889;28;20036;-61
2023/09/19 02:58:58;;;;;;;7.20;2.03;;;;;;;16.01;84.35;100550.94;5037537;28;20072;-60
2023/09/19 03:01:23;;;;;;;7.80;2.30;;;;;;;15.99;84.58;100546.69;5028455;28;20072;-60
2023/09/19 03:03:49;;;;;;;18.02;3.22;;;;;;;15.94;85.34;100548.63;5031449;28;20048;-61
2023/09/19 03:06:15;;;;;;;6.72;2.45;;;;;;;15.92;85.03;100550.41;5031137;28;20025;-60
2023/09/19 03:08:42;;;;;;;7.80;1.80;;;;;;;15.89;85.28;100542.69;5029097;28;20041;-60
2023/09/19 03:11:12;;;;;;;6.55;1.55;;;;;;;15.84;86.38;100552.41;5028169;28;20408;-61
2023/09/19 03:13:38;;;;;;;7.85;2.35;;;;;;;15.76;87.27;100561.31;5030565;28;20404;-61
2023/09/19 03:16:06;;;;;;;13.10;2.35;;;;;;;15.71;86.88;100565.84;5030784;28;20030;-61
2023/09/19 03:18:34;;;;;;;8.75;2.45;;;;;;;15.70;86.64;100555.47;5035636;28;20079;-60
2023/09/19 03:21:02;;;;;;;8.40;2.28;;;;;;;15.68;86.94;100562.47;5033118;28;20087;-60
2023/09/19 03:23:28;;;;;;;6.63;2.10;;;;;;;15.63;87.67;100564.38;5031523;28;20059;-60
2023/09/19 03:25:55;;;;;;;5.78;2.20;;;;;;;15.59;88.21;100566.22;5032136;28;20046;-60
2023/09/19 03:28:21;;;;;;;7.97;2.47;;;;;;;15.58;88.43;100568.88;5030782;28;20825;-60
2023/09/19 03:30:58;;;;;;;6.05;2.35;;;;;;;15.57;88.08;100572.38;5027890;28;20021;-61
2023/09/19 03:33:23;;;;;;;9.07;2.28;;;;;;;15.55;88.67;100577.59;5036801;28;20059;-66
2023/09/19 03:35:53;;;;;;;9.70;2.25;;;;;;;15.52;88.55;100569.88;5038210;28;20488;-66
2023/09/19 03:38:19;;;;;;;7.63;2.63;;;;;;;15.50;89.03;100574.31;5031694;28;20131;-66
2023/09/19 03:40:44;;;;;;;12.48;2.75;;;;;;;15.48;89.14;100575.25;5029589;28;20094;-66
2023/09/19 03:43:10;;;;;;;7.35;2.10;;;;;;;15.45;89.56;100578.81;5030243;28;20496;-66
2023/09/19 03:45:35;;;;;;;6.55;2.08;;;;;;;15.42;89.79;100575.44;5028876;28;20069;-66
2023/09/19 03:48:00;;;;;;;7.05;2.30;;;;;;;15.38;90.21;100579.91;5031362;28;20044;-66
2023/09/19 03:50:26;;;;;;;6.65;2.28;;;;;;;15.34;90.27;100567.88;5034129;28;20029;-66
2023/09/19 03:52:56;;;;;;;10.75;2.13;;;;;;;15.30;90.84;100573.22;5027717;28;20026;-66
2023/09/19 03:55:21;;;;;;;8.63;2.25;;;;;;;15.24;91.21;100563.84;5033226;28;20037;-59
2023/09/19 03:57:50;;;;;;;11.20;2.00;;;;;;;15.20;91.57;100575.25;5028534;28;20052;-66
2023/09/19 04:00:18;;;;;;;7.13;1.92;;;;;;;15.16;91.23;100574.50;5033855;28;20033;-66
2023/09/19 04:02:43;;;;;;;9.23;2.13;;;;;;;15.13;91.78;100574.59;5025370;28;20072;-66
2023/09/19 04:05:10;;;;;;;7.65;1.92;;;;;;;15.10;92.00;100576.44;5034787;28;20535;-66
2023/09/19 04:07:35;;;;;;;10.50;2.63;;;;;;;15.10;91.43;100571.22;5028645;28;20033;-66
2023/09/19 04:10:01;;;;;;;8.10;2.25;;;;;;;15.08;91.29;100568.66;5030389;28;20037;-66
2023/09/19 04:12:27;;;;;;;7.28;2.38;;;;;;;15.08;91.04;100573.00;5030664;28;20041;-66
2023/09/19 04:14:52;;;;;;;11.27;2.22;;;;;;;15.10;90.10;100572.09;5028993;28;20037;-60
2023/09/19 04:17:18;;;;;;;7.93;2.28;;;;;;;15.10;90.41;100569.50;5028615;28;20037;-60
2023/09/19 04:19:45;;;;;;;10.85;2.30;;;;;;;15.10;90.41;100573.84;5030551;28;20111;-60
2023/09/19 04:22:11;;;;;;;6.57;2.10;;;;;;;15.08;90.11;100579.06;5028903;28;20056;-60
2023/09/19 04:24:37;;;;;;;8.93;2.30;;;;;;;15.05;89.82;100575.69;5034249;28;20435;-61
2023/09/19 04:27:03;;;;;;;6.53;2.30;;;;;;;15.01;89.45;100567.16;5037650;28;20108;-61
2023/09/19 04:29:29;;;;;;;5.82;2.22;;;;;;;14.99;89.45;100576.75;5029318;28;20168;-61
2023/09/19 04:31:54;;;;;;;11.48;2.95;;;;;;;14.97;90.21;100580.28;5038241;28;20041;-61
2023/09/19 04:34:20;;;;;;;8.35;2.67;;;;;;;14.96;90.76;100583.81;5034982;28;20032;-61
2023/09/19 04:36:45;;;;;;;9.43;2.55;;;;;;;14.91;91.21;100585.66;5031234;28;20124;-61
2023/09/19 04:39:12;;;;;;;12.55;3.67;;;;;;;14.86;91.65;100575.41;5033685;28;20607;-61
2023/09/19 04:41:40;;;;;;;8.23;2.90;;;;;;;14.85;91.86;100580.63;5030535;28;20053;-61
2023/09/19 04:44:06;;;;;;;7.35;2.47;;;;;;;14.82;92.09;100578.97;5035555;28;20102;-61
2023/09/19 04:46:31;;;;;;;6.63;2.10;;;;;;;14.81;92.08;100590.28;5028149;28;20033;-61
2023/09/19 04:48:56;;;;;;;9.52;2.80;;;;;;;14.78;92.76;100592.13;5029835;28;20085;-61
2023/09/19 04:51:22;;;;;;;7.20;2.40;;;;;;;14.76;92.44;100586.09;5036898;28;20388;-61
2023/09/19 04:53:48;;;;;;;13.43;2.75;;;;;;;14.75;92.20;100584.41;5037003;28;20500;-61
2023/09/19 04:56:13;;;;;;;7.72;2.17;;;;;;;14.72;92.33;100581.91;5034105;28;20053;-61
2023/09/19 04:58:38;;;;;;;10.18;2.47;;;;;;;14.69;91.56;100587.19;5040769;28;20053;-63
2023/09/19 05:01:04;;;;;;;12.15;2.55;;;;;;;14.68;91.86;100581.13;5030466;28;20060;-62
2023/09/19 05:03:30;;;;;;;9.52;2.92;;;;;;;14.70;91.70;100599.28;5034892;28;20032;-63
2023/09/19 05:05:55;;;;;;;7.88;2.60;;;;;;;14.66;91.73;100596.78;5032885;28;20584;-63
2023/09/19 05:08:22;;;;;;;6.97;2.40;;;;;;;14.66;91.51;100596.78;5030150;28;20523;-63
2023/09/19 05:10:47;;;;;;;9.68;2.45;;;;;;;14.64;91.75;100601.16;5031653;28;20102;-63
2023/09/19 05:13:13;;;;;;;5.85;1.80;;;;;;;14.59;92.01;100605.66;5035185;28;20643;-62
2023/09/19 05:15:39;;;;;;;10.80;2.53;;;;;;;14.57;91.78;100607.44;5031163;28;20545;-63
2023/09/19 05:18:06;;;;;;;10.63;2.78;;;;;;;14.55;92.21;100609.22;5035789;28;20486;-63
2023/09/19 05:20:37;;;;;;;12.20;3.35;;;;;;;14.50;92.51;100618.91;5031214;28;20041;-63
2023/09/19 05:23:11;;;;;;;7.97;2.78;;;;;;;14.51;92.61;100624.97;5033594;28;20033;-62
2023/09/19 05:25:38;;;;;;;13.30;2.40;;;;;;;14.51;92.83;100630.16;5031738;28;20029;-63
2023/09/19 05:28:05;;;;;;;8.98;2.42;;;;;;;14.48;92.73;100628.47;5035679;28;20030;-67
2023/09/19 05:30:32;;;;;;;6.30;2.13;;;;;;;14.49;92.47;100627.59;5033767;28;20048;-67
2023/09/19 05:32:58;;;;;;;10.75;2.63;;;;;;;14.50;93.19;100636.25;5033961;28;20037;-71
2023/09/19 05:35:25;;;;;;;11.57;2.30;;;;;;;14.49;92.50;100634.53;5028725;28;20040;-66
2023/09/19 05:37:51;;;;;;;7.13;2.13;;;;;;;14.52;93.18;100650.91;5037044;28;20508;-67
2023/09/19 05:40:17;;;;;;;9.90;2.55;;;;;;;14.52;92.20;100644.84;5036388;28;20029;-66
2023/09/19 05:42:43;;;;;;;6.65;2.58;;;;;;;14.53;92.84;100652.63;5032633;28;20547;-66
2023/09/19 05:45:12;;;;;;;8.02;2.60;;;;;;;14.53;92.78;100665.66;5030092;28;20131;-66
2023/09/19 05:47:45;;;;;;;7.07;2.58;;;;;;;14.55;92.58;100660.38;5033260;28;20276;-67
2023/09/19 05:50:11;;;;;;;10.88;2.25;;;;;;;14.55;92.46;100661.25;5028399;28;20035;-66
2023/09/19 05:52:37;;;;;;;14.82;2.60;;;;;;;14.57;92.64;100672.44;5032591;28;20033;-66
2023/09/19 05:55:07;;;;;;;10.63;2.90;;;;;;;14.61;92.28;100670.63;5035675;28;20032;-66
2023/09/19 05:57:33;;;;;;;10.05;2.72;;;;;;;14.62;92.61;100668.00;5031863;28;20019;-66
2023/09/19 05:59:59;;;;;;;8.85;2.65;;;;;;;14.66;92.62;100669.59;5034573;28;20358;-66
2023/09/19 06:02:26;;;;;;;13.95;3.08;;;;;;;14.70;91.33;100674.72;5032261;28;20055;-66
2023/09/19 06:04:52;;;;;;;6.45;2.60;;;;;;;14.76;91.34;100677.16;5032631;28;20133;-66
2023/09/19 06:07:18;;;;;;;9.35;2.45;;;;;;;14.79;91.73;100684.91;5033755;28;20033;-66
2023/09/19 06:09:43;;;;;;;15.63;2.60;;;;;;;14.81;90.29;100677.94;5033090;28;20037;-66
2023/09/19 06:12:09;;;;;;;9.88;2.17;;;;;;;14.86;91.25;100687.31;5037940;28;20380;-66
2023/09/19 06:14:34;;;;;;;11.90;2.72;;;;;;;14.89;90.30;100692.44;5032576;28;20090;-66
2023/09/19 06:17:00;;;;;;;12.65;2.63;;;;;;;14.93;90.57;100693.22;5036083;28;20039;-66
2023/09/19 06:19:25;;;;;;;11.10;2.20;;;;;;;14.98;90.00;100692.19;5042166;28;20037;-66
2023/09/19 06:21:53;;;;;;;5.00;1.70;;;;;;;15.01;90.23;100710.31;5032038;28;20037;-67
2023/09/19 06:24:19;;;;;;;12.52;2.83;;;;;;;15.06;89.68;100707.56;5036630;28;20033;-66
2023/09/19 06:26:45;;;;;;;7.30;2.20;;;;;;;15.11;89.89;100718.72;5032965;28;20043;-62
2023/09/19 06:29:10;;;;;;;10.23;2.45;;;;;;;15.14;88.92;100716.03;5034821;28;20033;-62
2023/09/19 06:31:36;;;;;;;7.60;2.83;;;;;;;15.17;89.12;100715.94;5034594;28;20040;-61
2023/09/19 06:34:03;;;;;;;7.88;2.35;;;;;;;15.23;88.54;100720.16;5029328;28;20052;-62
2023/09/19 06:36:28;;;;;;;9.73;2.05;;;;;;;15.29;89.44;100722.53;5033143;28;20029;-63
2023/09/19 06:38:53;;;;;;;8.15;2.72;;;;;;;15.34;88.22;100718.94;5032169;28;20032;-62
2023/09/19 06:41:19;;;;;;;10.65;2.70;;;;;;;15.38;88.36;100707.53;5032246;28;20048;-62
2023/09/19 06:43:44;;;;;;;8.77;2.67;;;;;;;15.41;87.63;100712.63;5029994;28;20104;-62
2023/09/19 06:46:10;;;;;;;7.32;2.25;;;;;;;15.43;86.99;100713.47;5031696;28;20047;-62
2023/09/19 06:48:35;;;;;;;10.63;2.83;;;;;;;15.49;88.09;100723.72;5028869;28;20144;-60
2023/09/19 06:51:02;;;;;;;7.45;2.22;;;;;;;15.53;86.50;100716.63;5036640;28;20123;-59
2023/09/19 06:53:31;;;;;;;16.00;2.83;;;;;;;15.57;85.55;100719.13;5030920;28;20127;-59
2023/09/19 06:55:57;;;;;;;9.07;2.50;;;;;;;15.71;86.28;100721.34;5032483;28;20512;-59
2023/09/19 06:58:22;;;;;;;14.07;3.03;;;;;;;15.79;86.10;100723.72;5034673;28;20037;-59
2023/09/19 07:00:49;;;;;;;8.45;2.60;;;;;;;15.88;85.31;100713.03;5032071;28;20506;-59
2023/09/19 07:03:17;;;;;;;9.88;2.45;;;;;;;15.92;85.12;100707.66;5033345;28;20361;-59
2023/09/19 07:05:43;;;;;;;10.07;2.20;;;;;;;16.03;84.31;100717.75;5028785;28;20038;-59
2023/09/19 07:08:12;;;;;;;8.85;2.45;;;;;;;16.10;83.89;100708.84;5028851;28;20040;-59
2023/09/19 07:10:40;;;;;;;10.70;3.13;;;;;;;16.13;83.85;100708.75;5028144;28;20040;-59
2023/09/19 07:13:10;;;;;;;10.90;2.25;;;;;;;16.21;83.73;100702.38;5033936;28;20033;-61
2023/09/19 07:15:46;;;;;;;13.07;2.30;;;;;;;16.27;82.92;100704.78;5030931;28;20057;-61
2023/09/19 07:18:12;;;;;;;18.58;3.60;;;;;;;16.35;82.17;100703.69;5029919;28;20037;-66
2023/09/19 07:20:38;;;;;;;8.55;2.45;;;;;;;16.39;82.99;100700.06;5031348;28;20033;-67
2023/09/19 07:23:03;;;;;;;8.90;2.22;;;;;;;16.47;82.19;100704.13;5029217;28;20060;-66
2023/09/19 07:25:29;;;;;;;7.55;2.28;;;;;;;16.53;81.05;100684.81;5030857;28;20041;-66
2023/09/19 07:27:56;;;;;;;13.13;2.78;;;;;;;16.59;80.78;100692.44;5033787;28;20640;-66
2023/09/19 07:30:22;;;;;;;14.90;3.13;;;;;;;16.65;80.31;100698.28;5022549;28;20033;-66
2023/09/19 07:32:47;;;;;;;10.63;2.53;;;;;;;16.73;80.05;100695.41;5031154;28;20021;-67
2023/09/19 07:35:13;;;;;;;9.45;2.67;;;;;;;16.83;78.88;100688.97;5031979;28;20040;-66
2023/09/19 07:37:38;;;;;;;10.75;3.05;;;;;;;16.85;78.90;100685.44;5033870;28;20041;-66
2023/09/19 07:40:11;;;;;;;10.13;3.00;;;;;;;16.88;77.93;100681.00;5036960;28;20035;-66
2023/09/19 07:42:40;;;;;;;12.75;2.58;;;;;;;16.94;78.08;100693.84;5034638;28;20036;-67
2023/09/19 07:45:07;;;;;;;9.35;2.28;;;;;;;16.98;78.84;100701.50;5028844;28;20053;-66
2023/09/19 07:47:33;;;;;;;11.10;2.85;;;;;;;17.04;78.74;100700.47;5036155;28;20029;-66
2023/09/19 07:50:01;;;;;;;13.65;3.13;;;;;;;17.14;78.62;100709.66;5036091;28;20531;-66
2023/09/19 07:52:27;;;;;;;12.30;3.33;;;;;;;17.17;77.91;100691.25;5037880;28;20041;-66
2023/09/19 07:54:53;;;;;;;10.05;2.53;;;;;;;17.23;76.61;100672.75;5032717;28;20064;-66
2023/09/19 07:57:19;;;;;;;8.98;2.47;;;;;;;17.33;76.48;100681.94;5040367;28;20110;-66
2023/09/19 07:59:45;;;;;;;12.50;3.15;;;;;;;17.33;76.05;100676.72;5035174;28;20043;-60
2023/09/19 08:02:15;;;;;;;10.38;2.50;;;;;;;17.47;76.45;100690.13;5035383;28;20037;-59
2023/09/19 08:04:46;;;;;;;11.13;2.50;;;;;;;17.48;75.08;100667.47;5032726;28;20488;-59
2023/09/19 08:07:13;;;;;;;11.23;2.67;;;;;;;17.59;75.68;100689.66;5034184;28;20060;-59
2023/09/19 08:09:38;;;;;;;15.40;3.15;;;;;;;17.62;74.89;100684.31;5028686;28;20529;-60
2023/09/19 08:12:05;;;;;;;11.18;2.55;;;;;;;17.68;74.29;100681.47;5037300;28;20155;-59
2023/09/19 08:14:30;;;;;;;12.20;2.50;;;;;;;17.74;73.55;100673.38;5032920;28;20144;-59
2023/09/19 08:17:00;;;;;;;8.75;3.25;;;;;;;17.81;73.71;100679.22;5036181;28;20112;-60
2023/09/19 08:19:28;;;;;;;9.65;2.47;;;;;;;17.87;72.77;100673.75;5032449;28;20037;-60
2023/09/19 08:22:00;;;;;;;12.60;2.67;;;;;;;17.95;72.57;100676.94;5034822;28;20025;-59
2023/09/19 08:24:28;;;;;;;11.45;2.65;;;;;;;17.99;72.60;100664.59;5036054;28;20026;-59
2023/09/19 08:26:57;;;;;;;10.68;2.33;;;;;;;18.04;72.75;100673.09;5034033;28;20156;-59
2023/09/19 08:29:27;;;;;;;9.20;2.28;;;;;;;18.08;71.33;100653.78;5036443;28;20059;-59
2023/09/19 08:31:54;;;;;;;11.85;3.05;;;;;;;18.13;70.49;100646.56;5038107;28;20373;-59
2023/09/19 08:34:21;;;;;;;8.70;2.55;;;;;;;18.16;70.02;100643.84;5035575;28;20526;-59
2023/09/19 08:36:47;;;;;;;8.05;2.30;;;;;;;18.24;68.53;100607.72;5035106;28;20433;-63
2023/09/19 08:39:13;;;;;;;11.93;3.03;;;;;;;18.30;68.07;100610.94;5035410;28;20055;-62
2023/09/19 08:41:39;;;;;;;14.48;2.78;;;;;;;18.35;67.91;100614.22;5032725;28;20072;-62
2023/09/19 08:44:05;;;;;;;10.63;2.55;;;;;;;18.43;67.34;100612.09;5030787;28;20039;-62
2023/09/19 08:46:34;;;;;;;12.38;2.50;;;;;;;18.44;66.44;100607.72;5033245;28;20033;-62
2023/09/19 08:49:13;;;;;;;8.20;1.92;;;;;;;18.47;66.30;100608.44;5036754;28;20036;-62
2023/09/19 08:51:39;;;;;;;8.05;2.47;;;;;;;18.45;65.41;100597.19;5034487;28;20025;-62
2023/09/19 08:54:07;;;;;;;13.00;2.75;;;;;;;18.48;65.77;100604.06;5033513;28;20017;-62
2023/09/19 08:56:33;;;;;;;9.88;2.90;;;;;;;18.57;65.67;100597.56;5034612;28;20029;-62
2023/09/19 08:59:12;;;;;;;9.93;2.00;;;;;;;18.68;65.75;100603.19;5034140;28;20041;-62
2023/09/19 09:01:41;;;;;;;7.38;2.20;;;;;;;18.80;66.38;100603.50;5031937;28;20411;-62
2023/09/19 09:04:09;;;;;;;7.15;2.05;;;;;;;18.89;66.04;100612.75;5025743;28;20033;-65
2023/09/19 09:06:35;;;;;;;8.68;2.20;;;;;;;18.95;66.25;100609.84;5035007;28;20026;-62
2023/09/19 09:09:03;;;;;;;8.43;2.75;;;;;;;18.96;64.79;100585.38;5034653;28;20061;-61
2023/09/19 09:11:29;;;;;;;9.18;2.20;;;;;;;19.03;65.34;100598.09;5037814;28;20735;-62
2023/09/19 09:13:54;;;;;;;8.63;2.63;;;;;;;19.00;64.88;100600.00;5038095;28;20041;-62
2023/09/19 09:16:19;;;;;;;12.27;2.40;;;;;;;18.99;63.61;100573.00;5035948;28;20085;-62
2023/09/19 09:18:45;;;;;;;7.45;2.28;;;;;;;19.05;64.30;100598.06;5033634;28;20475;-62
2023/09/19 09:21:14;;;;;;;9.05;2.17;;;;;;;19.04;64.19;100594.56;5035804;28;20546;-61
2023/09/19 09:23:39;;;;;;;7.93;2.10;;;;;;;19.01;64.17;100592.09;5029387;28;20045;-61
2023/09/19 09:26:09;;;;;;;9.02;2.35;;;;;;;19.00;62.79;100566.81;5036654;28;20060;-61
2023/09/19 09:28:36;;;;;;;5.60;2.00;;;;;;;19.03;63.34;100579.75;5029508;28;20079;-61
2023/09/19 09:31:09;;;;;;;7.35;2.03;;;;;;;19.03;63.85;100592.88;5035048;28;20036;-61
2023/09/19 09:33:35;;;;;;;7.50;1.80;;;;;;;19.10;63.98;100597.81;5025842;28;20136;-62
2023/09/19 09:36:03;;;;;;;9.07;1.75;;;;;;;19.18;63.89;100593.06;5034261;28;20029;-61
2023/09/19 09:38:48;;;;;;;5.20;1.80;;;;;;;19.22;64.32;100610.38;5031722;28;20051;-61
2023/09/19 09:41:26;;;;;;;7.63;2.50;;;;;;;19.26;63.81;100591.81;5032118;28;20044;-61
2023/09/19 09:43:53;;;;;;;11.00;2.35;;;;;;;19.23;62.75;100560.50;5032242;28;20079;-61
2023/09/19 09:48:54;;;;;;;8.02;2.00;;;;;;;19.33;62.39;100566.16;5034744;28;20028;-61
2023/09/19 09:51:33;;;;;;;5.72;1.88;;;;;;;19.47;63.10;100579.47;5034244;28;20075;-61
2023/09/19 09:54:20;;;;;;;10.85;2.67;;;;;;;19.63;63.29;100575.16;5033600;28;20033;-62
2023/09/19 09:56:58;;;;;;;12.40;2.38;;;;;;;19.68;61.84;100549.56;5034243;28;20094;-61
2023/09/19 09:59:46;;;;;;;6.90;1.92;;;;;;;19.80;62.54;100564.72;5033998;28;20094;-61
2023/09/19 10:02:13;;;;;;;7.90;1.98;;;;;;;19.88;61.07;100543.38;5031827;28;20030;-61
2023/09/19 10:04:51;;;;;;;6.38;2.00;;;;;;;19.91;60.44;100525.72;5035416;28;20119;-61
2023/09/19 10:07:37;;;;;;;7.28;1.77;;;;;;;19.96;60.79;100536.81;5027439;28;20029;-61
2023/09/19 10:10:22;;;;;;;9.85;2.15;;;;;;;19.95;60.12;100532.50;5032638;28;20036;-61
2023/09/19 10:12:48;;;;;;;7.75;2.20;;;;;;;20.13;59.97;100531.56;5032297;28;20480;-61
2023/09/19 10:15:24;;;;;;;8.43;2.60;;;;;;;20.23;60.40;100546.84;5032742;28;20033;-61
2023/09/19 10:17:54;;;;;;;6.07;1.70;;;;;;;20.27;60.28;100535.25;5026757;28;20040;-62
2023/09/19 10:20:38;;;;;;;6.13;1.83;;;;;;;20.40;59.39;100523.19;5030823;28;20037;-63
2023/09/19 10:23:13;;;;;;;4.60;1.80;;;;;;;20.60;59.44;100523.00;5034622;28;20065;-61
2023/09/19 10:25:40;;;;;;;7.50;2.05;;;;;;;20.69;57.91;100493.63;5033103;28;20033;-62
2023/09/19 10:28:11;;;;;;;8.80;2.20;;;;;;;20.93;56.72;100475.69;5034037;28;20404;-62
2023/09/19 10:30:41;;;;;;;7.20;2.65;;;;;;;20.93;56.19;100466.00;5030508;28;20061;-62
2023/09/19 10:33:07;;;;;;;4.97;1.70;;;;;;;20.96;56.96;100492.09;5030399;28;20074;-60
2023/09/19 10:35:33;;;;;;;6.88;2.10;;;;;;;21.10;56.85;100484.34;5032795;28;20500;-60
2023/09/19 10:38:05;;;;;;;4.13;2.05;;;;;;;21.20;57.54;100496.00;5035111;28;20042;-60
2023/09/19 10:40:32;;;;;;;6.68;1.80;;;;;;;21.28;55.63;100459.59;5029206;28;20033;-60
2023/09/19 10:43:05;;;;;;;9.25;2.13;;;;;;;21.49;54.86;100454.88;5031511;28;20045;-60
2023/09/19 10:45:31;;;;;;;8.35;1.80;;;;;;;21.47;54.46;100456.78;5027953;28;20075;-60
2023/09/19 10:47:58;;;;;;;7.47;2.00;;;;;;;21.62;54.39;100457.69;5036509;28;20160;-61
2023/09/19 10:50:24;;;;;;;8.65;1.90;;;;;;;21.61;53.82;100448.94;5036075;28;20029;-61
2023/09/19 10:52:57;;;;;;;4.82;1.50;;;;;;;21.55;53.86;100449.31;5028123;28;20038;-59
2023/09/19 10:55:25;;;;;;;4.43;1.75;;;;;;;21.49;53.96;100462.78;5034711;28;20036;-62
2023/09/19 10:57:51;;;;;;;6.82;1.90;;;;;;;21.50;53.79;100459.22;5036413;28;20583;-61
2023/09/19 11:00:23;;;;;;;9.23;2.33;;;;;;;21.52;54.22;100475.75;5034316;28;20123;-65
2023/09/19 11:03:11;;;;;;;7.68;2.63;;;;;;;21.51;53.84;100474.06;5028115;28;20037;-66
2023/09/19 11:05:43;;;;;;;6.05;1.80;;;;;;;21.57;51.77;100433.44;5030060;28;20045;-66
2023/09/19 11:08:12;;;;;;;5.10;1.77;;;;;;;21.47;50.89;100414.69;5029933;28;20114;-66
2023/09/19 11:10:47;;;;;;;7.50;2.10;;;;;;;21.50;52.39;100442.59;5026990;28;20132;-66
2023/09/19 11:13:34;;;;;;;8.23;2.13;;;;;;;21.44;52.97;100451.69;5031664;28;20047;-61
2023/09/19 11:16:00;;;;;;;6.68;2.15;;;;;;;21.46;53.69;100462.94;5029954;28;20121;-59
2023/09/19 11:18:41;;;;;;;5.70;1.90;;;;;;;21.53;52.14;100431.88;5032301;28;20064;-62
2023/09/19 11:21:30;;;;;;;8.40;2.03;;;;;;;21.45;51.66;100421.84;5029175;28;20483;-59
2023/09/19 11:24:19;;;;;;;6.78;1.88;;;;;;;21.40;52.92;100450.19;5030515;28;20049;-59
2023/09/19 11:26:48;;;;;;;7.57;2.17;;;;;;;21.44;52.38;100435.91;5034814;28;20261;-59
2023/09/19 11:29:28;;;;;;;7.40;2.13;;;;;;;21.61;52.62;100456.03;5032338;28;20086;-59
2023/09/19 11:31:55;;;;;;;6.72;1.90;;;;;;;21.63;51.43;100435.72;5033109;28;20033;-59